Roxbury, Massachusetts
Current Conditions -  °F | °C
As of 8:54 PM on Saturday 22 Nov 2014 (Local Time) from KBOS Reporting Station
Broken Clouds Broken Clouds  
Wind Chill: 31°   Ceiling: 19000
Heat Index: 40°   Visibility: 10mi
Dew Point: 20°   Wind: 17mph
Humidity: 45%   Direction: 230°SW
Pressure: 30.09"   Gusts: 25mph
Location:  42.3237°N, 71.0855°W
Report Text: KBOS 230154Z 23015G22KT 10SM FEW040 BKN190 04/M07 A3009 RMK AO2 PK WND 22026/0113 SLP189 T00441067
Loading
Personal Weather Stations






























Interactive Weather Map New forecast layout! Learn more

10-Day Weather Forecast

Advertisements
Track Severe Weather on mobile